createdAt,value
2023-01-29T00:01:56.330Z,1.89
2023-01-29T00:05:26.043Z,1.96
2023-01-29T00:08:39.645Z,1.85
2023-01-29T00:11:52.321Z,2.00
2023-01-29T00:15:05.079Z,1.93
2023-01-29T00:18:17.774Z,2.15
2023-01-29T00:21:33.492Z,2.10
2023-01-29T00:24:46.126Z,2.02
2023-01-29T00:27:58.590Z,1.98
2023-01-29T00:31:13.224Z,2.03
2023-01-29T00:34:25.632Z,2.07
2023-01-29T00:37:38.396Z,1.94
2023-01-29T00:41:09.692Z,1.58
2023-01-29T00:44:40.735Z,1.71
2023-01-29T00:47:53.127Z,1.69
2023-01-29T00:51:06.722Z,1.67
2023-01-29T00:54:19.277Z,1.66
2023-01-29T00:57:32.367Z,1.66
2023-01-29T01:00:44.803Z,1.63
2023-01-29T01:03:58.503Z,1.72
2023-01-29T01:10:41.042Z,1.65
2023-01-29T01:13:54.535Z,1.82
2023-01-29T01:17:07.192Z,1.64
2023-01-29T01:20:19.691Z,1.65
2023-01-29T01:23:32.422Z,1.41
2023-01-29T01:26:44.809Z,1.53
2023-01-29T01:29:58.024Z,1.49
2023-01-29T01:33:10.378Z,1.44
2023-01-29T01:36:22.999Z,1.36
2023-01-29T01:39:35.371Z,1.35
2023-01-29T01:42:51.826Z,1.28
2023-01-29T01:46:04.489Z,1.33
2023-01-29T01:49:18.473Z,1.25
2023-01-29T01:52:31.245Z,1.13
2023-01-29T01:55:52.487Z,0.94
2023-01-29T01:59:05.790Z,0.94
2023-01-29T02:02:36.963Z,0.67
2023-01-29T02:06:08.272Z,0.64
2023-01-29T02:09:38.874Z,0.51
2023-01-29T02:12:51.567Z,0.49
2023-01-29T02:16:04.023Z,0.42
2023-01-29T02:19:44.272Z,0.38
2023-01-29T02:23:34.369Z,0.35
2023-01-29T02:27:13.671Z,0.37
2023-01-29T02:30:31.931Z,0.24
2023-01-29T02:34:06.154Z,0.31
2023-01-29T02:37:18.607Z,0.13
2023-01-29T02:40:37.092Z,0.29
2023-01-29T02:44:04.626Z,0.16
2023-01-29T02:47:23.253Z,0.01
2023-01-29T02:50:41.178Z,-0.13
2023-01-29T02:54:10.292Z,-0.14
2023-01-29T02:57:25.483Z,-0.24
2023-01-29T03:00:40.331Z,-0.31
2023-01-29T03:03:53.582Z,-0.45
2023-01-29T03:07:10.706Z,-0.40
2023-01-29T03:10:35.411Z,-0.36
2023-01-29T03:13:56.187Z,-0.58
2023-01-29T03:17:10.564Z,-0.63
2023-01-29T03:20:26.522Z,-0.65
2023-01-29T03:23:57.603Z,-0.75
2023-01-29T03:27:29.410Z,-0.81
2023-01-29T03:31:06.768Z,-0.82
2023-01-29T03:34:28.642Z,-0.82
2023-01-29T03:37:43.583Z,-0.77
2023-01-29T03:41:00.305Z,-0.78
2023-01-29T03:44:30.766Z,-0.70
2023-01-29T03:47:55.871Z,-0.71
2023-01-29T03:51:12.097Z,-0.70
2023-01-29T03:54:39.271Z,-0.61
2023-01-29T03:58:06.492Z,-0.54
2023-01-29T04:01:48.901Z,-0.57
2023-01-29T04:05:07.755Z,-0.65
2023-01-29T04:08:25.117Z,-0.41
2023-01-29T04:11:38.767Z,-0.48
2023-01-29T04:14:51.113Z,-0.33
2023-01-29T04:18:04.135Z,-0.48
2023-01-29T04:21:18.503Z,-0.37
2023-01-29T04:24:31.191Z,-0.31
2023-01-29T04:27:50.375Z,-0.28
2023-01-29T04:31:06.794Z,-0.10
2023-01-29T04:34:29.313Z,-0.21
2023-01-29T04:37:48.354Z,0.17
2023-01-29T04:41:11.742Z,0.13
2023-01-29T04:44:42.627Z,0.24
2023-01-29T04:48:04.016Z,0.41
2023-01-29T04:51:21.220Z,0.54
2023-01-29T04:55:29.437Z,0.62
2023-01-29T04:58:44.626Z,0.35
2023-01-29T05:01:57.051Z,0.22
2023-01-29T05:05:09.681Z,-0.02
2023-01-29T05:08:23.219Z,-0.23
2023-01-29T05:11:36.186Z,-0.18
2023-01-29T05:14:48.508Z,-0.20
2023-01-29T05:18:03.220Z,-0.21
2023-01-29T05:21:15.643Z,-0.21
2023-01-29T05:24:28.305Z,-0.09
2023-01-29T05:27:59.264Z,-0.05
2023-01-29T05:31:12.135Z,0.17
2023-01-29T05:34:24.648Z,0.11
2023-01-29T05:37:37.444Z,0.04
2023-01-29T05:40:49.827Z,0.14
2023-01-29T05:44:02.419Z,0.10
2023-01-29T05:47:14.751Z,0.16
2023-01-29T05:50:27.560Z,0.33
2023-01-29T05:53:40.278Z,0.54
2023-01-29T05:56:55.474Z,0.39
2023-01-29T06:00:08.797Z,0.29
2023-01-29T06:03:24.790Z,0.42
2023-01-29T06:06:37.385Z,0.21
2023-01-29T06:09:49.739Z,0.38
2023-01-29T06:13:02.544Z,0.57
2023-01-29T06:16:15.323Z,0.35
2023-01-29T06:19:27.918Z,0.55
2023-01-29T06:22:40.246Z,0.42
2023-01-29T06:25:52.867Z,0.25
2023-01-29T06:29:05.272Z,0.11
2023-01-29T06:32:17.908Z,0.27
2023-01-29T06:35:30.297Z,0.41
2023-01-29T06:38:42.967Z,0.22
2023-01-29T06:41:55.341Z,0.33
2023-01-29T06:45:08.507Z,0.18
2023-01-29T06:48:20.878Z,0.25
2023-01-29T06:51:33.477Z,0.56
2023-01-29T06:54:45.835Z,0.36
2023-01-29T06:57:58.509Z,0.48
2023-01-29T07:01:15.516Z,0.29
2023-01-29T07:04:37.907Z,0.35
2023-01-29T07:07:50.276Z,0.40
2023-01-29T07:11:03.451Z,0.45
2023-01-29T07:14:15.821Z,0.45
2023-01-29T07:17:28.468Z,0.52
2023-01-29T07:20:41.090Z,0.39
2023-01-29T07:23:53.745Z,0.71
2023-01-29T07:27:06.151Z,0.55
2023-01-29T07:30:19.132Z,0.91
2023-01-29T07:33:32.005Z,0.98
2023-01-29T07:36:44.623Z,1.06
2023-01-29T07:39:56.967Z,1.34
2023-01-29T07:43:10.127Z,1.65
2023-01-29T07:46:23.603Z,1.54
2023-01-29T07:49:36.218Z,1.13
2023-01-29T07:52:48.579Z,1.15
2023-01-29T07:56:01.251Z,0.94
2023-01-29T07:59:13.624Z,0.99
2023-01-29T08:02:26.256Z,1.09
2023-01-29T08:05:38.868Z,1.10
2023-01-29T08:08:52.245Z,1.02
2023-01-29T08:12:05.056Z,1.23
2023-01-29T08:15:17.450Z,1.15
2023-01-29T08:18:31.576Z,0.96
2023-01-29T08:21:43.983Z,0.92
2023-01-29T08:25:06.293Z,1.17
2023-01-29T08:28:20.425Z,1.49
2023-01-29T08:31:33.620Z,1.35
2023-01-29T08:34:46.041Z,1.40
2023-01-29T08:38:00.028Z,1.29
2023-01-29T08:41:12.383Z,1.40
2023-01-29T08:44:24.991Z,1.42
2023-01-29T08:47:37.347Z,1.41
2023-01-29T08:50:50.129Z,1.26
2023-01-29T08:54:02.467Z,1.14
2023-01-29T08:57:15.094Z,1.24
2023-01-29T09:00:27.461Z,1.07
2023-01-29T09:03:41.219Z,1.05
2023-01-29T09:06:53.599Z,0.97
2023-01-29T09:10:06.419Z,1.12
2023-01-29T09:13:18.726Z,1.23
2023-01-29T09:16:31.398Z,0.89
2023-01-29T09:19:43.801Z,1.11
2023-01-29T09:22:56.835Z,0.94
2023-01-29T09:26:09.688Z,1.19
2023-01-29T09:29:22.333Z,1.32
2023-01-29T09:32:53.608Z,1.28
2023-01-29T09:36:07.302Z,1.35
2023-01-29T09:39:19.603Z,1.19
2023-01-29T09:42:42.001Z,1.14
2023-01-29T09:46:02.218Z,1.02
2023-01-29T09:49:16.187Z,1.07
2023-01-29T09:52:32.317Z,1.21
2023-01-29T09:55:54.396Z,1.21
2023-01-29T09:59:08.327Z,1.20
2023-01-29T10:02:39.160Z,1.03
2023-01-29T10:05:55.751Z,1.02
2023-01-29T10:09:32.616Z,1.09
2023-01-29T10:12:54.005Z,1.11
2023-01-29T10:16:21.989Z,1.19
2023-01-29T10:19:56.371Z,1.30
2023-01-29T10:23:18.928Z,1.04
2023-01-29T10:26:31.625Z,0.96
2023-01-29T10:29:44.544Z,0.97
2023-01-29T10:32:59.905Z,1.09
2023-01-29T10:36:15.389Z,1.14
2023-01-29T10:39:30.244Z,1.07
2023-01-29T10:42:46.403Z,1.26
2023-01-29T10:46:26.576Z,0.95
2023-01-29T10:50:17.797Z,0.86
2023-01-29T10:54:14.986Z,0.98
2023-01-29T10:57:48.935Z,1.06
2023-01-29T11:01:01.552Z,0.97
2023-01-29T11:04:13.888Z,0.99
2023-01-29T11:07:27.848Z,1.02
2023-01-29T11:11:11.680Z,0.88
2023-01-29T11:14:28.530Z,1.19
2023-01-29T11:17:41.789Z,1.03
2023-01-29T11:21:03.042Z,1.17
2023-01-29T11:24:18.759Z,0.84
2023-01-29T11:27:33.216Z,0.99
2023-01-29T11:30:45.575Z,1.09
2023-01-29T11:34:18.551Z,1.03
2023-01-29T11:37:41.083Z,0.92
2023-01-29T11:40:54.014Z,0.88
2023-01-29T11:44:18.333Z,1.11
2023-01-29T11:47:31.011Z,0.92
2023-01-29T11:50:43.474Z,1.06
2023-01-29T11:53:57.391Z,0.95
2023-01-29T11:57:24.777Z,0.86
2023-01-29T12:00:37.195Z,0.92
2023-01-29T12:03:53.069Z,1.13
2023-01-29T12:07:05.511Z,1.37
2023-01-29T12:10:35.512Z,1.21
2023-01-29T12:13:47.852Z,1.26
2023-01-29T12:17:07.514Z,1.10
2023-01-29T12:20:24.242Z,1.12
2023-01-29T12:23:58.358Z,1.04
2023-01-29T12:27:46.688Z,0.89
2023-01-29T12:31:12.622Z,0.88
2023-01-29T12:34:33.753Z,0.81
2023-01-29T12:38:21.887Z,0.86
2023-01-29T12:41:34.243Z,0.87
2023-01-29T12:45:08.723Z,0.81
2023-01-29T12:48:26.804Z,0.66
2023-01-29T12:51:43.292Z,0.63
2023-01-29T12:55:20.891Z,0.53
2023-01-29T12:58:36.545Z,0.84
2023-01-29T13:01:56.784Z,0.86
2023-01-29T13:05:38.718Z,0.72
2023-01-29T13:09:07.503Z,0.74
2023-01-29T13:12:20.882Z,1.23
2023-01-29T13:15:40.805Z,0.68
2023-01-29T13:19:00.618Z,0.87
2023-01-29T13:22:22.776Z,0.83
2023-01-29T13:25:35.417Z,0.93
2023-01-29T13:28:47.896Z,0.98
2023-01-29T13:32:01.537Z,0.88
2023-01-29T13:35:14.337Z,1.30
2023-01-29T13:38:29.493Z,1.03
2023-01-29T13:41:42.544Z,1.07
2023-01-29T13:44:56.334Z,1.08
2023-01-29T13:48:18.695Z,1.40
2023-01-29T13:51:35.308Z,1.20
2023-01-29T13:55:02.588Z,1.32
2023-01-29T13:58:18.743Z,1.47
2023-01-29T14:01:49.318Z,1.53
2023-01-29T14:05:29.546Z,1.27
2023-01-29T14:08:47.398Z,1.11
2023-01-29T14:12:00.112Z,1.05
2023-01-29T14:15:19.095Z,0.95
2023-01-29T14:18:34.735Z,1.23
2023-01-29T14:21:49.191Z,0.88
2023-01-29T14:25:04.773Z,0.79
2023-01-29T14:28:21.379Z,0.67
2023-01-29T14:31:44.185Z,0.69
2023-01-29T14:35:03.899Z,0.73
2023-01-29T14:38:16.686Z,0.60
2023-01-29T14:41:33.184Z,0.52
2023-01-29T14:44:45.858Z,0.43
2023-01-29T14:48:21.215Z,0.30
2023-01-29T14:51:35.810Z,0.48
2023-01-29T14:54:48.288Z,0.74
2023-01-29T14:58:00.959Z,0.55
2023-01-29T15:01:22.499Z,0.64
2023-01-29T15:04:41.876Z,1.75
2023-01-29T15:08:04.783Z,2.03
2023-01-29T15:11:37.707Z,1.82
2023-01-29T15:15:14.949Z,1.39
2023-01-29T15:18:47.987Z,1.46
2023-01-29T15:22:13.337Z,0.96
2023-01-29T15:25:25.917Z,0.71
2023-01-29T15:28:38.814Z,0.29
2023-01-29T15:31:51.611Z,0.13
2023-01-29T15:35:36.807Z,0.07
2023-01-29T15:38:49.489Z,-0.18
2023-01-29T15:42:11.476Z,-0.07
2023-01-29T15:45:33.463Z,-0.13
2023-01-29T15:48:45.813Z,-0.60
2023-01-29T15:51:59.739Z,-0.75
2023-01-29T15:55:12.079Z,-1.07
2023-01-29T15:58:29.496Z,-1.22
2023-01-29T16:01:42.874Z,-1.17
2023-01-29T16:04:55.543Z,-1.16
2023-01-29T16:08:12.889Z,-1.23
2023-01-29T16:11:25.556Z,-1.37
2023-01-29T16:14:37.897Z,-1.38
2023-01-29T16:17:50.743Z,-1.39
2023-01-29T16:21:17.214Z,-1.52
2023-01-29T16:24:31.283Z,-1.53
2023-01-29T16:27:43.924Z,-1.55
2023-01-29T16:31:02.663Z,-1.65
2023-01-29T16:34:19.543Z,-1.74
2023-01-29T16:37:36.401Z,-1.76
2023-01-29T16:41:14.707Z,-1.75
2023-01-29T16:44:40.869Z,-1.79
2023-01-29T16:48:00.830Z,-1.80
2023-01-29T16:51:36.905Z,-1.77
2023-01-29T16:54:49.373Z,-1.78
2023-01-29T16:58:04.586Z,-1.79
2023-01-29T17:01:16.983Z,-1.80
2023-01-29T17:04:29.721Z,-1.69
2023-01-29T17:07:44.243Z,-1.79
2023-01-29T17:10:56.890Z,-1.80
2023-01-29T17:14:09.603Z,-1.74
2023-01-29T17:17:22.393Z,-1.81
2023-01-29T17:20:34.757Z,-1.62
2023-01-29T17:23:47.440Z,-1.68
2023-01-29T17:27:00.806Z,-1.57
2023-01-29T17:30:15.440Z,-1.61
2023-01-29T17:33:27.829Z,-1.63
2023-01-29T17:36:43.930Z,-1.49
2023-01-29T17:39:56.380Z,-1.51
2023-01-29T17:43:11.700Z,-1.39
2023-01-29T17:46:24.061Z,-1.48
2023-01-29T17:49:37.459Z,-1.38
2023-01-29T17:52:50.349Z,-1.35
2023-01-29T17:56:02.981Z,-1.35
2023-01-29T17:59:16.903Z,-1.40
2023-01-29T18:02:30.088Z,-1.30
2023-01-29T18:05:46.816Z,-1.48
2023-01-29T18:08:59.176Z,-1.59
2023-01-29T18:12:11.904Z,-1.59
2023-01-29T18:15:24.204Z,-1.57
2023-01-29T18:18:37.692Z,-1.58
2023-01-29T18:21:50.314Z,-1.68
2023-01-29T18:25:02.949Z,-1.84
2023-01-29T18:28:17.139Z,-1.87
2023-01-29T18:31:29.852Z,-1.87
2023-01-29T18:34:42.320Z,-1.94
2023-01-29T18:37:55.088Z,-2.09
2023-01-29T18:41:10.630Z,-2.16
2023-01-29T18:44:23.316Z,-2.10
2023-01-29T18:47:35.621Z,-2.21
2023-01-29T18:50:48.241Z,-2.34
2023-01-29T18:54:01.124Z,-2.24
2023-01-29T18:57:43.692Z,-2.22
2023-01-29T19:00:46.427Z,-2.32
2023-01-29T19:04:00.342Z,-2.33
2023-01-29T19:07:13.485Z,-2.30
2023-01-29T19:10:26.365Z,-2.31
2023-01-29T19:13:38.782Z,-2.28
2023-01-29T19:16:51.530Z,-2.39
2023-01-29T19:20:04.832Z,-2.42
2023-01-29T19:23:17.456Z,-2.43
2023-01-29T19:26:33.949Z,-2.45
2023-01-29T19:29:46.672Z,-2.49
2023-01-29T19:32:58.999Z,-2.62
2023-01-29T19:36:13.227Z,-2.54
2023-01-29T19:39:29.899Z,-2.75
2023-01-29T19:42:43.658Z,-2.69
2023-01-29T19:46:00.430Z,-2.78
2023-01-29T19:49:13.083Z,-2.73
2023-01-29T19:52:51.213Z,-2.74
2023-01-29T19:56:06.257Z,-2.88
2023-01-29T19:59:19.175Z,-2.83
2023-01-29T20:02:32.479Z,-2.87
2023-01-29T20:05:45.072Z,-2.85
2023-01-29T20:08:57.408Z,-2.85
2023-01-29T20:12:10.031Z,-2.85
2023-01-29T20:15:22.554Z,-2.83
2023-01-29T20:18:35.151Z,-2.89
2023-01-29T20:21:48.912Z,-2.85
2023-01-29T20:25:01.638Z,-2.91
2023-01-29T20:28:15.149Z,-3.08
2023-01-29T20:31:27.789Z,-2.94
2023-01-29T20:34:40.956Z,-3.02
2023-01-29T20:37:53.582Z,-2.88
2023-01-29T20:41:16.188Z,-2.97
2023-01-29T20:44:28.818Z,-2.82
2023-01-29T20:47:42.385Z,-2.90
2023-01-29T20:50:55.148Z,-2.99
2023-01-29T20:54:08.145Z,-3.03
2023-01-29T20:57:20.999Z,-3.03
2023-01-29T21:00:33.522Z,-3.14
2023-01-29T21:03:46.616Z,-3.20
2023-01-29T21:06:58.921Z,-3.13
2023-01-29T21:10:11.672Z,-2.98
2023-01-29T21:13:24.038Z,-3.29
2023-01-29T21:16:36.701Z,-3.06
2023-01-29T21:19:50.207Z,-3.23
2023-01-29T21:23:05.254Z,-3.34
2023-01-29T21:26:19.066Z,-3.24
2023-01-29T21:29:31.757Z,-3.25
2023-01-29T21:32:44.140Z,-3.42
2023-01-29T21:35:59.700Z,-3.51
2023-01-29T21:39:17.996Z,-3.43
2023-01-29T21:42:49.257Z,-3.53
2023-01-29T21:46:11.406Z,-3.61
2023-01-29T21:49:24.283Z,-3.48
2023-01-29T21:52:36.598Z,-3.49
2023-01-29T21:55:49.236Z,-3.53
2023-01-29T21:59:02.432Z,-3.57
2023-01-29T22:02:15.254Z,-3.44
2023-01-29T22:05:29.216Z,-3.53
2023-01-29T22:08:41.600Z,-3.48
2023-01-29T22:11:54.406Z,-3.33
2023-01-29T22:15:07.742Z,-3.45
2023-01-29T22:18:20.411Z,-3.22
2023-01-29T22:21:35.072Z,-3.25
2023-01-29T22:24:48.638Z,-3.22
2023-01-29T22:28:00.997Z,-3.25
2023-01-29T22:31:13.707Z,-3.23
2023-01-29T22:34:26.011Z,-3.33
2023-01-29T22:37:38.618Z,-3.13
2023-01-29T22:40:54.200Z,-3.22
2023-01-29T22:44:06.911Z,-3.33
2023-01-29T22:47:19.277Z,-3.03
2023-01-29T22:50:31.914Z,-3.10
2023-01-29T22:53:54.382Z,-3.22
2023-01-29T22:57:07.092Z,-3.34
2023-01-29T23:00:20.083Z,-3.33
2023-01-29T23:03:32.928Z,-3.40
2023-01-29T23:06:45.255Z,-3.28
2023-01-29T23:09:58.115Z,-3.54
2023-01-29T23:13:10.507Z,-3.51
2023-01-29T23:16:26.791Z,-3.57
2023-01-29T23:19:40.038Z,-3.59
2023-01-29T23:22:52.617Z,-3.62
2023-01-29T23:26:24.683Z,-3.55
2023-01-29T23:29:37.400Z,-3.51
2023-01-29T23:32:50.101Z,-3.65
2023-01-29T23:36:02.765Z,-3.75
2023-01-29T23:39:15.305Z,-3.82
2023-01-29T23:42:27.910Z,-3.81
2023-01-29T23:45:41.292Z,-3.54
2023-01-29T23:48:53.912Z,-3.70
2023-01-29T23:52:06.267Z,-3.76
2023-01-29T23:55:18.911Z,-3.76
2023-01-29T23:58:31.486Z,-4.00
